Weather at Harmony Field

Public forecast

Using degrees Fahrenheit for public forecast. Weather courtesy of forecast.io.

Closest aviation weather report (METAR) to Harmony Field

Closest report is Stinson Municipal Airport, 5.4 nm (10.0 km) WNW.

2024/05/19 20:57 (retrieved 50 minutes ago)

KSSF 192057Z 15008G17KT 6SM HZ CLR 34/19 A2985 RMK AO2 T03440194

Closest aviation forecast (TAF) to Harmony Field

Closest forecast is Stinson Municipal Airport, 5.4 nm (10.0 km) WNW.

2024/05/19 21:03 Ammendment (retrieved 44 minutes ago)

TAF AMD KSSF 192100Z 1921/2018 13012KT P6SM SKC FM200700 16010KT P6SM BKN015 FM200900 16008KT 5SM BR OVC007 FM201300 17009KT P6SM OVC015 FM201700 17010KT P6SM FEW022